sensor_id;sensor_type;location;lat;lon;timestamp;temperature;humidity
39677;DHT22;27789;50.840;4.386;2022-08-18T00:00:28;21.70;99.90
39677;DHT22;27789;50.840;4.386;2022-08-18T00:02:54;21.70;99.90
39677;DHT22;27789;50.840;4.386;2022-08-18T00:05:21;21.60;99.90
39677;DHT22;27789;50.840;4.386;2022-08-18T00:07:46;21.60;99.90
39677;DHT22;27789;50.840;4.386;2022-08-18T00:10:12;21.70;99.90
39677;DHT22;27789;50.840;4.386;2022-08-18T00:12:38;21.70;99.90
39677;DHT22;27789;50.840;4.386;2022-08-18T00:15:05;21.70;99.90
39677;DHT22;27789;50.840;4.386;2022-08-18T00:17:31;21.70;99.90
39677;DHT22;27789;50.840;4.386;2022-08-18T00:19:57;21.60;99.90
39677;DHT22;27789;50.840;4.386;2022-08-18T00:22:23;21.60;99.90
39677;DHT22;27789;50.840;4.386;2022-08-18T00:24:50;21.60;99.90
39677;DHT22;27789;50.840;4.386;2022-08-18T00:27:20;21.50;99.90
39677;DHT22;27789;50.840;4.386;2022-08-18T00:29:46;21.50;99.90
39677;DHT22;27789;50.840;4.386;2022-08-18T00:32:12;21.50;99.90
39677;DHT22;27789;50.840;4.386;2022-08-18T00:34:38;21.50;99.90
39677;DHT22;27789;50.840;4.386;2022-08-18T00:37:03;21.50;99.90
39677;DHT22;27789;50.840;4.386;2022-08-18T00:39:29;21.50;99.90
39677;DHT22;27789;50.840;4.386;2022-08-18T00:41:55;21.40;99.90
39677;DHT22;27789;50.840;4.386;2022-08-18T00:44:20;21.30;99.90
39677;DHT22;27789;50.840;4.386;2022-08-18T00:46:46;21.30;99.90
39677;DHT22;27789;50.840;4.386;2022-08-18T00:49:11;21.30;99.90
39677;DHT22;27789;50.840;4.386;2022-08-18T00:51:48;21.20;99.90
39677;DHT22;27789;50.840;4.386;2022-08-18T00:54:15;21.20;99.90
39677;DHT22;27789;50.840;4.386;2022-08-18T00:56:45;21.20;99.90
39677;DHT22;27789;50.840;4.386;2022-08-18T01:01:40;21.20;99.90
39677;DHT22;27789;50.840;4.386;2022-08-18T01:04:08;21.20;99.90
39677;DHT22;27789;50.840;4.386;2022-08-18T01:09:04;21.20;99.90
39677;DHT22;27789;50.840;4.386;2022-08-18T01:11:29;21.20;99.90
39677;DHT22;27789;50.840;4.386;2022-08-18T01:13:56;21.20;99.90
39677;DHT22;27789;50.840;4.386;2022-08-18T01:16:21;21.20;99.90
39677;DHT22;27789;50.840;4.386;2022-08-18T01:18:58;21.30;99.90
39677;DHT22;27789;50.840;4.386;2022-08-18T01:21:35;21.20;99.90
39677;DHT22;27789;50.840;4.386;2022-08-18T01:24:13;21.20;99.90
39677;DHT22;27789;50.840;4.386;2022-08-18T01:26:39;21.20;99.90
39677;DHT22;27789;50.840;4.386;2022-08-18T01:29:07;21.20;99.90
39677;DHT22;27789;50.840;4.386;2022-08-18T01:31:38;21.20;99.90
39677;DHT22;27789;50.840;4.386;2022-08-18T01:34:09;21.30;99.90
39677;DHT22;27789;50.840;4.386;2022-08-18T01:36:36;21.30;99.90
39677;DHT22;27789;50.840;4.386;2022-08-18T01:39:03;21.30;99.90
39677;DHT22;27789;50.840;4.386;2022-08-18T01:41:29;21.40;99.90
39677;DHT22;27789;50.840;4.386;2022-08-18T01:43:55;21.40;99.90
39677;DHT22;27789;50.840;4.386;2022-08-18T01:46:21;21.40;99.90
39677;DHT22;27789;50.840;4.386;2022-08-18T01:48:47;21.40;99.90
39677;DHT22;27789;50.840;4.386;2022-08-18T01:51:13;21.50;99.90
39677;DHT22;27789;50.840;4.386;2022-08-18T01:53:39;21.50;99.90
39677;DHT22;27789;50.840;4.386;2022-08-18T01:56:05;21.50;99.90
39677;DHT22;27789;50.840;4.386;2022-08-18T01:58:31;21.50;99.90
39677;DHT22;27789;50.840;4.386;2022-08-18T02:00:57;21.50;99.90
39677;DHT22;27789;50.840;4.386;2022-08-18T02:03:30;21.60;99.90
39677;DHT22;27789;50.840;4.386;2022-08-18T02:05:59;21.60;99.90
39677;DHT22;27789;50.840;4.386;2022-08-18T02:08:25;21.60;99.90
39677;DHT22;27789;50.840;4.386;2022-08-18T02:10:50;21.60;99.90
39677;DHT22;27789;50.840;4.386;2022-08-18T02:13:16;21.60;99.90
39677;DHT22;27789;50.840;4.386;2022-08-18T02:15:42;21.50;99.90
39677;DHT22;27789;50.840;4.386;2022-08-18T02:18:14;21.60;99.90
39677;DHT22;27789;50.840;4.386;2022-08-18T02:20:40;21.60;99.90
39677;DHT22;27789;50.840;4.386;2022-08-18T02:23:06;21.60;99.90
39677;DHT22;27789;50.840;4.386;2022-08-18T02:25:31;21.60;99.90
39677;DHT22;27789;50.840;4.386;2022-08-18T02:27:56;21.50;99.90
39677;DHT22;27789;50.840;4.386;2022-08-18T02:30:22;21.50;99.90
39677;DHT22;27789;50.840;4.386;2022-08-18T02:32:48;21.50;99.90
39677;DHT22;27789;50.840;4.386;2022-08-18T02:35:13;21.60;99.90
39677;DHT22;27789;50.840;4.386;2022-08-18T02:37:39;21.60;99.90
39677;DHT22;27789;50.840;4.386;2022-08-18T02:40:05;21.60;99.90
39677;DHT22;27789;50.840;4.386;2022-08-18T02:42:31;21.60;99.90
39677;DHT22;27789;50.840;4.386;2022-08-18T02:44:56;21.50;99.90
39677;DHT22;27789;50.840;4.386;2022-08-18T02:47:22;21.60;99.90
39677;DHT22;27789;50.840;4.386;2022-08-18T02:49:47;21.60;99.90
39677;DHT22;27789;50.840;4.386;2022-08-18T02:52:13;21.60;99.90
39677;DHT22;27789;50.840;4.386;2022-08-18T02:54:38;21.60;99.90
39677;DHT22;27789;50.840;4.386;2022-08-18T02:57:11;21.60;99.90
39677;DHT22;27789;50.840;4.386;2022-08-18T02:59:37;21.60;99.90
39677;DHT22;27789;50.840;4.386;2022-08-18T03:02:03;21.50;99.90
39677;DHT22;27789;50.840;4.386;2022-08-18T03:04:29;21.50;99.90
39677;DHT22;27789;50.840;4.386;2022-08-18T03:06:56;21.40;99.90
39677;DHT22;27789;50.840;4.386;2022-08-18T03:09:21;21.40;99.90
39677;DHT22;27789;50.840;4.386;2022-08-18T03:11:47;21.30;99.90
39677;DHT22;27789;50.840;4.386;2022-08-18T03:14:13;21.30;99.90
39677;DHT22;27789;50.840;4.386;2022-08-18T03:16:40;21.30;99.90
39677;DHT22;27789;50.840;4.386;2022-08-18T03:19:05;21.20;99.90
39677;DHT22;27789;50.840;4.386;2022-08-18T03:21:31;21.30;99.90
39677;DHT22;27789;50.840;4.386;2022-08-18T03:24:00;21.30;99.90
39677;DHT22;27789;50.840;4.386;2022-08-18T03:26:25;21.30;99.90
39677;DHT22;27789;50.840;4.386;2022-08-18T03:28:52;21.30;99.90
39677;DHT22;27789;50.840;4.386;2022-08-18T03:31:18;21.30;99.90
39677;DHT22;27789;50.840;4.386;2022-08-18T03:33:45;21.30;99.90
39677;DHT22;27789;50.840;4.386;2022-08-18T03:36:12;21.30;99.90
39677;DHT22;27789;50.840;4.386;2022-08-18T03:38:39;21.30;99.90
39677;DHT22;27789;50.840;4.386;2022-08-18T03:41:05;21.40;99.90
39677;DHT22;27789;50.840;4.386;2022-08-18T03:43:30;21.40;99.90
39677;DHT22;27789;50.840;4.386;2022-08-18T03:46:00;21.40;99.90
39677;DHT22;27789;50.840;4.386;2022-08-18T03:48:25;21.50;99.90
39677;DHT22;27789;50.840;4.386;2022-08-18T03:50:51;21.50;99.90
39677;DHT22;27789;50.840;4.386;2022-08-18T03:53:16;21.50;99.90
39677;DHT22;27789;50.840;4.386;2022-08-18T03:55:42;21.50;99.90
39677;DHT22;27789;50.840;4.386;2022-08-18T03:58:08;21.50;99.90
39677;DHT22;27789;50.840;4.386;2022-08-18T04:00:38;21.60;99.90
39677;DHT22;27789;50.840;4.386;2022-08-18T04:03:03;21.50;99.90
39677;DHT22;27789;50.840;4.386;2022-08-18T04:05:29;21.50;99.90
39677;DHT22;27789;50.840;4.386;2022-08-18T04:07:54;21.50;99.90
39677;DHT22;27789;50.840;4.386;2022-08-18T04:10:21;21.50;99.90
39677;DHT22;27789;50.840;4.386;2022-08-18T04:12:47;21.50;99.90
39677;DHT22;27789;50.840;4.386;2022-08-18T04:15:12;21.60;99.90
39677;DHT22;27789;50.840;4.386;2022-08-18T04:17:38;21.60;99.90
39677;DHT22;27789;50.840;4.386;2022-08-18T04:20:04;21.50;99.90
39677;DHT22;27789;50.840;4.386;2022-08-18T04:22:29;21.50;99.90
39677;DHT22;27789;50.840;4.386;2022-08-18T04:24:58;21.50;99.90
39677;DHT22;27789;50.840;4.386;2022-08-18T04:27:25;21.50;99.90
39677;DHT22;27789;50.840;4.386;2022-08-18T04:29:52;21.50;99.90
39677;DHT22;27789;50.840;4.386;2022-08-18T04:32:17;21.50;99.90
39677;DHT22;27789;50.840;4.386;2022-08-18T04:34:43;21.50;99.90
39677;DHT22;27789;50.840;4.386;2022-08-18T04:37:09;21.50;99.90
39677;DHT22;27789;50.840;4.386;2022-08-18T04:39:35;21.60;99.90
39677;DHT22;27789;50.840;4.386;2022-08-18T04:42:01;21.60;99.90
39677;DHT22;27789;50.840;4.386;2022-08-18T04:44:28;21.60;99.90
39677;DHT22;27789;50.840;4.386;2022-08-18T04:46:54;21.60;99.90
39677;DHT22;27789;50.840;4.386;2022-08-18T04:49:21;21.60;99.90
39677;DHT22;27789;50.840;4.386;2022-08-18T04:51:48;21.60;99.90
39677;DHT22;27789;50.840;4.386;2022-08-18T04:54:25;21.60;99.90
39677;DHT22;27789;50.840;4.386;2022-08-18T04:56:50;21.50;99.90
39677;DHT22;27789;50.840;4.386;2022-08-18T04:59:17;21.60;99.90
39677;DHT22;27789;50.840;4.386;2022-08-18T05:01:43;21.60;99.90
39677;DHT22;27789;50.840;4.386;2022-08-18T05:04:10;21.50;99.90
39677;DHT22;27789;50.840;4.386;2022-08-18T05:06:38;21.50;99.90
39677;DHT22;27789;50.840;4.386;2022-08-18T05:09:05;21.50;99.90
39677;DHT22;27789;50.840;4.386;2022-08-18T05:11:31;21.50;99.90
39677;DHT22;27789;50.840;4.386;2022-08-18T05:14:00;21.60;99.90
39677;DHT22;27789;50.840;4.386;2022-08-18T05:16:29;21.60;99.90
39677;DHT22;27789;50.840;4.386;2022-08-18T05:18:56;21.60;99.90
39677;DHT22;27789;50.840;4.386;2022-08-18T05:21:23;21.60;99.90
39677;DHT22;27789;50.840;4.386;2022-08-18T05:23:49;21.60;99.90
39677;DHT22;27789;50.840;4.386;2022-08-18T05:26:16;21.60;99.90
39677;DHT22;27789;50.840;4.386;2022-08-18T05:28:42;21.60;99.90
39677;DHT22;27789;50.840;4.386;2022-08-18T05:31:12;21.60;99.90
39677;DHT22;27789;50.840;4.386;2022-08-18T05:33:38;21.70;99.90
39677;DHT22;27789;50.840;4.386;2022-08-18T05:44:06;21.70;99.90
39677;DHT22;27789;50.840;4.386;2022-08-18T05:49:09;21.70;99.90
39677;DHT22;27789;50.840;4.386;2022-08-18T05:51:43;21.70;99.90
39677;DHT22;27789;50.840;4.386;2022-08-18T05:54:09;21.60;99.90
39677;DHT22;27789;50.840;4.386;2022-08-18T05:56:46;21.60;99.90
39677;DHT22;27789;50.840;4.386;2022-08-18T05:59:17;21.50;99.90
39677;DHT22;27789;50.840;4.386;2022-08-18T06:01:43;21.60;99.90
39677;DHT22;27789;50.840;4.386;2022-08-18T06:04:15;21.50;99.90
39677;DHT22;27789;50.840;4.386;2022-08-18T06:06:43;21.50;99.90
39677;DHT22;27789;50.840;4.386;2022-08-18T06:09:16;21.50;99.90
39677;DHT22;27789;50.840;4.386;2022-08-18T06:11:44;21.60;99.90
39677;DHT22;27789;50.840;4.386;2022-08-18T06:14:09;21.60;99.90
39677;DHT22;27789;50.840;4.386;2022-08-18T06:21:52;21.70;99.90
39677;DHT22;27789;50.840;4.386;2022-08-18T06:37:20;21.60;99.90
39677;DHT22;27789;50.840;4.386;2022-08-18T06:39:50;21.70;99.90
39677;DHT22;27789;50.840;4.386;2022-08-18T06:42:20;21.70;99.90
39677;DHT22;27789;50.840;4.386;2022-08-18T06:44:47;21.70;99.90
39677;DHT22;27789;50.840;4.386;2022-08-18T06:52:20;21.80;99.90
39677;DHT22;27789;50.840;4.386;2022-08-18T06:54:46;21.70;99.90
39677;DHT22;27789;50.840;4.386;2022-08-18T06:57:21;21.80;99.90
39677;DHT22;27789;50.840;4.386;2022-08-18T06:59:53;21.80;99.90
39677;DHT22;27789;50.840;4.386;2022-08-18T07:02:23;21.90;99.90
39677;DHT22;27789;50.840;4.386;2022-08-18T07:10:03;22.10;99.90
39677;DHT22;27789;50.840;4.386;2022-08-18T07:12:29;22.20;99.90
39677;DHT22;27789;50.840;4.386;2022-08-18T07:14:57;22.20;99.90
39677;DHT22;27789;50.840;4.386;2022-08-18T07:17:30;22.30;99.90
39677;DHT22;27789;50.840;4.386;2022-08-18T07:25:10;22.60;99.90
39677;DHT22;27789;50.840;4.386;2022-08-18T07:27:45;22.60;99.90
39677;DHT22;27789;50.840;4.386;2022-08-18T07:30:14;22.60;99.90
39677;DHT22;27789;50.840;4.386;2022-08-18T07:32:52;22.60;99.90
39677;DHT22;27789;50.840;4.386;2022-08-18T07:35:23;22.60;99.90
39677;DHT22;27789;50.840;4.386;2022-08-18T07:37:53;22.60;99.90
39677;DHT22;27789;50.840;4.386;2022-08-18T07:42:53;22.70;99.90
39677;DHT22;27789;50.840;4.386;2022-08-18T07:50:22;22.90;99.90
39677;DHT22;27789;50.840;4.386;2022-08-18T07:55:28;23.00;99.90
39677;DHT22;27789;50.840;4.386;2022-08-18T08:00:33;23.00;99.90
39677;DHT22;27789;50.840;4.386;2022-08-18T08:05:38;23.00;99.90
39677;DHT22;27789;50.840;4.386;2022-08-18T08:10:34;22.90;99.90
39677;DHT22;27789;50.840;4.386;2022-08-18T08:15:50;22.90;99.90
39677;DHT22;27789;50.840;4.386;2022-08-18T08:20:55;23.10;99.90
39677;DHT22;27789;50.840;4.386;2022-08-18T08:31:07;23.50;99.90
39677;DHT22;27789;50.840;4.386;2022-08-18T08:33:41;23.70;99.90
39677;DHT22;27789;50.840;4.386;2022-08-18T08:36:11;23.80;99.90
39677;DHT22;27789;50.840;4.386;2022-08-18T08:43:51;24.00;99.90
39677;DHT22;27789;50.840;4.386;2022-08-18T08:46:19;24.10;99.90
39677;DHT22;27789;50.840;4.386;2022-08-18T08:48:51;24.10;99.90
39677;DHT22;27789;50.840;4.386;2022-08-18T08:53:48;24.10;99.90
39677;DHT22;27789;50.840;4.386;2022-08-18T08:56:15;24.20;99.90
39677;DHT22;27789;50.840;4.386;2022-08-18T08:58:48;24.30;99.90
39677;DHT22;27789;50.840;4.386;2022-08-18T09:01:21;24.30;99.90
39677;DHT22;27789;50.840;4.386;2022-08-18T09:03:52;24.40;99.90
39677;DHT22;27789;50.840;4.386;2022-08-18T09:06:24;24.40;99.90
39677;DHT22;27789;50.840;4.386;2022-08-18T09:22:30;24.70;99.80
39677;DHT22;27789;50.840;4.386;2022-08-18T09:24:45;24.80;99.80
39677;DHT22;27789;50.840;4.386;2022-08-18T09:37:28;25.20;97.40
39677;DHT22;27789;50.840;4.386;2022-08-18T09:40:02;25.20;97.00
39677;DHT22;27789;50.840;4.386;2022-08-18T09:50:33;25.80;97.50
39677;DHT22;27789;50.840;4.386;2022-08-18T09:53:14;25.90;96.50
39677;DHT22;27789;50.840;4.386;2022-08-18T09:55:41;26.00;96.50
39677;DHT22;27789;50.840;4.386;2022-08-18T09:58:19;26.00;95.70
39677;DHT22;27789;50.840;4.386;2022-08-18T10:00:45;26.20;95.30
39677;DHT22;27789;50.840;4.386;2022-08-18T10:03:30;26.20;94.90
39677;DHT22;27789;50.840;4.386;2022-08-18T10:06:02;26.20;94.90
39677;DHT22;27789;50.840;4.386;2022-08-18T10:08:34;26.20;95.10
39677;DHT22;27789;50.840;4.386;2022-08-18T10:13:41;26.20;95.00
39677;DHT22;27789;50.840;4.386;2022-08-18T10:21:16;26.10;95.40
39677;DHT22;27789;50.840;4.386;2022-08-18T10:27:02;25.80;95.20
39677;DHT22;27789;50.840;4.386;2022-08-18T10:36:59;25.90;94.90
39677;DHT22;27789;50.840;4.386;2022-08-18T10:42:03;26.40;94.40
39677;DHT22;27789;50.840;4.386;2022-08-18T10:44:30;26.80;94.20
39677;DHT22;27789;50.840;4.386;2022-08-18T10:46:57;27.20;93.60
39677;DHT22;27789;50.840;4.386;2022-08-18T10:49:24;27.50;92.90
39677;DHT22;27789;50.840;4.386;2022-08-18T10:56:56;28.00;91.80
39677;DHT22;27789;50.840;4.386;2022-08-18T11:01:57;27.80;91.30
39677;DHT22;27789;50.840;4.386;2022-08-18T11:07:00;27.30;91.60
39677;DHT22;27789;50.840;4.386;2022-08-18T11:09:27;27.10;91.70
39677;DHT22;27789;50.840;4.386;2022-08-18T11:11:54;26.90;91.70
39677;DHT22;27789;50.840;4.386;2022-08-18T11:14:28;26.80;92.10
39677;DHT22;27789;50.840;4.386;2022-08-18T11:19:25;27.70;90.70
39677;DHT22;27789;50.840;4.386;2022-08-18T11:21:51;28.80;89.70
39677;DHT22;27789;50.840;4.386;2022-08-18T11:24:21;29.70;86.70
39677;DHT22;27789;50.840;4.386;2022-08-18T11:26:57;29.80;86.00
39677;DHT22;27789;50.840;4.386;2022-08-18T11:32:01;29.10;85.50
39677;DHT22;27789;50.840;4.386;2022-08-18T11:34:30;28.70;86.40
39677;DHT22;27789;50.840;4.386;2022-08-18T11:36:59;28.60;87.70
39677;DHT22;27789;50.840;4.386;2022-08-18T11:39:26;28.40;88.50
39677;DHT22;27789;50.840;4.386;2022-08-18T11:41:52;28.30;88.60
39677;DHT22;27789;50.840;4.386;2022-08-18T11:44:19;28.10;88.60
39677;DHT22;27789;50.840;4.386;2022-08-18T11:46:45;28.10;88.60
39677;DHT22;27789;50.840;4.386;2022-08-18T11:49:17;28.30;88.20
39677;DHT22;27789;50.840;4.386;2022-08-18T11:54:20;29.40;85.70
39677;DHT22;27789;50.840;4.386;2022-08-18T11:56:46;30.40;83.30
39677;DHT22;27789;50.840;4.386;2022-08-18T12:01:49;30.10;80.00
39677;DHT22;27789;50.840;4.386;2022-08-18T12:04:21;30.20;80.40
39677;DHT22;27789;50.840;4.386;2022-08-18T12:09:20;30.30;78.60
39677;DHT22;27789;50.840;4.386;2022-08-18T12:11:53;30.10;79.40
39677;DHT22;27789;50.840;4.386;2022-08-18T12:14:21;30.00;78.90
39677;DHT22;27789;50.840;4.386;2022-08-18T12:16:47;30.80;78.10
39677;DHT22;27789;50.840;4.386;2022-08-18T12:19:13;31.70;76.60
39677;DHT22;27789;50.840;4.386;2022-08-18T12:21:40;32.70;75.00
39677;DHT22;27789;50.840;4.386;2022-08-18T12:24:08;33.50;73.20
39677;DHT22;27789;50.840;4.386;2022-08-18T12:26:34;34.10;71.70
39677;DHT22;27789;50.840;4.386;2022-08-18T12:28:59;34.00;69.70
39677;DHT22;27789;50.840;4.386;2022-08-18T12:31:25;33.30;70.60
39677;DHT22;27789;50.840;4.386;2022-08-18T12:33:50;32.80;71.70
39677;DHT22;27789;50.840;4.386;2022-08-18T12:36:16;32.80;71.90
39677;DHT22;27789;50.840;4.386;2022-08-18T12:38:42;32.60;71.70
39677;DHT22;27789;50.840;4.386;2022-08-18T12:41:09;32.00;73.20
39677;DHT22;27789;50.840;4.386;2022-08-18T12:43:37;31.60;74.20
39677;DHT22;27789;50.840;4.386;2022-08-18T12:46:03;31.70;74.30
39677;DHT22;27789;50.840;4.386;2022-08-18T12:48:28;31.50;73.10
39677;DHT22;27789;50.840;4.386;2022-08-18T12:50:54;31.20;74.10
39677;DHT22;27789;50.840;4.386;2022-08-18T12:53:20;31.40;73.70
39677;DHT22;27789;50.840;4.386;2022-08-18T12:55:45;32.30;72.30
39677;DHT22;27789;50.840;4.386;2022-08-18T12:58:11;33.10;70.80
39677;DHT22;27789;50.840;4.386;2022-08-18T13:00:36;34.00;69.90
39677;DHT22;27789;50.840;4.386;2022-08-18T13:03:03;34.60;67.70
39677;DHT22;27789;50.840;4.386;2022-08-18T13:05:29;35.00;66.90
39677;DHT22;27789;50.840;4.386;2022-08-18T13:07:57;35.30;65.70
39677;DHT22;27789;50.840;4.386;2022-08-18T13:10:24;35.70;65.50
39677;DHT22;27789;50.840;4.386;2022-08-18T13:12:50;36.10;64.80
39677;DHT22;27789;50.840;4.386;2022-08-18T13:15:15;35.80;64.30
39677;DHT22;27789;50.840;4.386;2022-08-18T13:17:41;35.70;64.30
39677;DHT22;27789;50.840;4.386;2022-08-18T13:20:08;35.80;64.60
39677;DHT22;27789;50.840;4.386;2022-08-18T13:22:35;35.10;64.50
39677;DHT22;27789;50.840;4.386;2022-08-18T13:25:01;34.20;64.90
39677;DHT22;27789;50.840;4.386;2022-08-18T13:27:27;33.50;67.10
39677;DHT22;27789;50.840;4.386;2022-08-18T13:29:53;32.90;67.70
39677;DHT22;27789;50.840;4.386;2022-08-18T13:32:18;32.50;68.40
39677;DHT22;27789;50.840;4.386;2022-08-18T13:34:44;32.60;68.50
39677;DHT22;27789;50.840;4.386;2022-08-18T13:37:09;33.10;68.10
39677;DHT22;27789;50.840;4.386;2022-08-18T13:39:35;33.60;67.60
39677;DHT22;27789;50.840;4.386;2022-08-18T13:42:00;33.90;67.10
39677;DHT22;27789;50.840;4.386;2022-08-18T13:44:26;34.10;66.50
39677;DHT22;27789;50.840;4.386;2022-08-18T13:46:53;34.40;66.50
39677;DHT22;27789;50.840;4.386;2022-08-18T13:49:21;34.40;66.00
39677;DHT22;27789;50.840;4.386;2022-08-18T13:51:47;33.90;66.60
39677;DHT22;27789;50.840;4.386;2022-08-18T13:54:23;33.90;67.10
39677;DHT22;27789;50.840;4.386;2022-08-18T13:56:49;33.70;66.90
39677;DHT22;27789;50.840;4.386;2022-08-18T13:59:15;33.10;67.40
39677;DHT22;27789;50.840;4.386;2022-08-18T14:01:41;32.80;67.60
39677;DHT22;27789;50.840;4.386;2022-08-18T14:04:06;32.60;68.30
39677;DHT22;27789;50.840;4.386;2022-08-18T14:06:32;32.30;68.60
39677;DHT22;27789;50.840;4.386;2022-08-18T14:08:58;32.00;68.90
39677;DHT22;27789;50.840;4.386;2022-08-18T14:11:24;31.80;69.70
39677;DHT22;27789;50.840;4.386;2022-08-18T14:13:51;32.00;70.00
39677;DHT22;27789;50.840;4.386;2022-08-18T14:16:17;32.40;69.90
39677;DHT22;27789;50.840;4.386;2022-08-18T14:18:44;32.70;69.60
39677;DHT22;27789;50.840;4.386;2022-08-18T14:21:29;32.90;69.40
39677;DHT22;27789;50.840;4.386;2022-08-18T14:24:06;33.10;69.10
39677;DHT22;27789;50.840;4.386;2022-08-18T14:26:42;33.00;69.20
39677;DHT22;27789;50.840;4.386;2022-08-18T14:29:15;32.90;69.00
39677;DHT22;27789;50.840;4.386;2022-08-18T14:31:40;32.70;69.30
39677;DHT22;27789;50.840;4.386;2022-08-18T14:34:06;32.50;69.70
39677;DHT22;27789;50.840;4.386;2022-08-18T14:36:31;32.20;69.60
39677;DHT22;27789;50.840;4.386;2022-08-18T14:38:57;31.90;70.40
39677;DHT22;27789;50.840;4.386;2022-08-18T14:41:23;31.80;70.90
39677;DHT22;27789;50.840;4.386;2022-08-18T14:43:48;31.90;71.60
39677;DHT22;27789;50.840;4.386;2022-08-18T14:46:17;31.80;71.60
39677;DHT22;27789;50.840;4.386;2022-08-18T14:48:42;31.60;71.50
39677;DHT22;27789;50.840;4.386;2022-08-18T14:51:08;31.60;71.30
39677;DHT22;27789;50.840;4.386;2022-08-18T14:53:34;31.50;70.70
39677;DHT22;27789;50.840;4.386;2022-08-18T14:56:01;31.60;71.00
39677;DHT22;27789;50.840;4.386;2022-08-18T14:58:29;31.60;71.30
39677;DHT22;27789;50.840;4.386;2022-08-18T15:01:03;31.60;72.40
39677;DHT22;27789;50.840;4.386;2022-08-18T15:03:31;31.50;72.00
39677;DHT22;27789;50.840;4.386;2022-08-18T15:05:58;31.50;72.40
39677;DHT22;27789;50.840;4.386;2022-08-18T15:08:24;31.40;72.50
39677;DHT22;27789;50.840;4.386;2022-08-18T15:10:49;31.30;72.50
39677;DHT22;27789;50.840;4.386;2022-08-18T15:13:15;31.30;72.40
39677;DHT22;27789;50.840;4.386;2022-08-18T15:15:40;31.30;72.40
39677;DHT22;27789;50.840;4.386;2022-08-18T15:18:08;31.30;72.60
39677;DHT22;27789;50.840;4.386;2022-08-18T15:20:34;31.30;72.00
39677;DHT22;27789;50.840;4.386;2022-08-18T15:23:19;31.30;71.20
39677;DHT22;27789;50.840;4.386;2022-08-18T15:25:55;31.20;71.70
39677;DHT22;27789;50.840;4.386;2022-08-18T15:28:22;31.20;71.40
39677;DHT22;27789;50.840;4.386;2022-08-18T15:30:48;31.00;71.60
39677;DHT22;27789;50.840;4.386;2022-08-18T15:33:15;30.90;72.20
39677;DHT22;27789;50.840;4.386;2022-08-18T15:35:41;30.60;72.60
39677;DHT22;27789;50.840;4.386;2022-08-18T15:38:07;30.60;72.90
39677;DHT22;27789;50.840;4.386;2022-08-18T15:40:33;30.50;73.10
39677;DHT22;27789;50.840;4.386;2022-08-18T15:42:59;30.30;73.60
39677;DHT22;27789;50.840;4.386;2022-08-18T15:45:28;30.20;73.80
39677;DHT22;27789;50.840;4.386;2022-08-18T15:47:57;30.00;74.30
39677;DHT22;27789;50.840;4.386;2022-08-18T15:50:22;29.80;74.50
39677;DHT22;27789;50.840;4.386;2022-08-18T15:52:52;29.60;74.60
39677;DHT22;27789;50.840;4.386;2022-08-18T15:55:19;29.50;74.80
39677;DHT22;27789;50.840;4.386;2022-08-18T15:57:45;29.50;75.10
39677;DHT22;27789;50.840;4.386;2022-08-18T16:00:11;29.40;74.50
39677;DHT22;27789;50.840;4.386;2022-08-18T16:02:40;29.40;74.80
39677;DHT22;27789;50.840;4.386;2022-08-18T16:05:06;29.40;75.10
39677;DHT22;27789;50.840;4.386;2022-08-18T16:07:32;29.40;75.10
39677;DHT22;27789;50.840;4.386;2022-08-18T16:09:57;29.50;75.00
39677;DHT22;27789;50.840;4.386;2022-08-18T16:12:23;29.60;75.30
39677;DHT22;27789;50.840;4.386;2022-08-18T16:14:48;29.70;74.80
39677;DHT22;27789;50.840;4.386;2022-08-18T16:17:16;29.70;75.20
39677;DHT22;27789;50.840;4.386;2022-08-18T16:19:43;29.70;75.10
39677;DHT22;27789;50.840;4.386;2022-08-18T16:22:08;29.80;75.10
39677;DHT22;27789;50.840;4.386;2022-08-18T16:24:34;29.80;75.30
39677;DHT22;27789;50.840;4.386;2022-08-18T16:26:59;29.80;75.40
39677;DHT22;27789;50.840;4.386;2022-08-18T16:29:25;29.80;75.20
39677;DHT22;27789;50.840;4.386;2022-08-18T16:31:50;29.90;75.10
39677;DHT22;27789;50.840;4.386;2022-08-18T16:34:16;29.80;75.10
39677;DHT22;27789;50.840;4.386;2022-08-18T16:36:42;29.70;75.60
39677;DHT22;27789;50.840;4.386;2022-08-18T16:39:07;29.50;75.80
39677;DHT22;27789;50.840;4.386;2022-08-18T16:41:33;29.40;76.00
39677;DHT22;27789;50.840;4.386;2022-08-18T16:43:58;29.30;76.30
39677;DHT22;27789;50.840;4.386;2022-08-18T16:46:25;29.20;76.40
39677;DHT22;27789;50.840;4.386;2022-08-18T16:48:54;29.20;76.80
39677;DHT22;27789;50.840;4.386;2022-08-18T16:51:21;29.20;75.70
39677;DHT22;27789;50.840;4.386;2022-08-18T16:53:47;29.10;75.80
39677;DHT22;27789;50.840;4.386;2022-08-18T16:56:15;29.00;76.10
39677;DHT22;27789;50.840;4.386;2022-08-18T16:58:41;29.00;76.50
39677;DHT22;27789;50.840;4.386;2022-08-18T17:01:17;29.00;76.40
39677;DHT22;27789;50.840;4.386;2022-08-18T17:03:53;29.00;76.90
39677;DHT22;27789;50.840;4.386;2022-08-18T17:06:30;28.90;76.40
39677;DHT22;27789;50.840;4.386;2022-08-18T17:08:56;28.80;76.30
39677;DHT22;27789;50.840;4.386;2022-08-18T17:11:22;28.70;76.90
39677;DHT22;27789;50.840;4.386;2022-08-18T17:13:49;28.60;76.60
39677;DHT22;27789;50.840;4.386;2022-08-18T17:16:16;28.60;76.60
39677;DHT22;27789;50.840;4.386;2022-08-18T17:18:42;28.50;76.90
39677;DHT22;27789;50.840;4.386;2022-08-18T17:21:09;28.50;76.60
39677;DHT22;27789;50.840;4.386;2022-08-18T17:23:35;28.40;76.70
39677;DHT22;27789;50.840;4.386;2022-08-18T17:26:01;28.40;76.60
39677;DHT22;27789;50.840;4.386;2022-08-18T17:28:31;28.30;76.50
39677;DHT22;27789;50.840;4.386;2022-08-18T17:31:00;28.30;76.60
39677;DHT22;27789;50.840;4.386;2022-08-18T17:33:30;28.20;77.50
39677;DHT22;27789;50.840;4.386;2022-08-18T17:35:57;28.10;77.90
39677;DHT22;27789;50.840;4.386;2022-08-18T17:38:25;28.00;78.30
39677;DHT22;27789;50.840;4.386;2022-08-18T17:40:52;28.00;78.60
39677;DHT22;27789;50.840;4.386;2022-08-18T17:43:20;27.90;78.60
39677;DHT22;27789;50.840;4.386;2022-08-18T17:45:47;27.90;78.50
39677;DHT22;27789;50.840;4.386;2022-08-18T17:48:17;27.80;78.20
39677;DHT22;27789;50.840;4.386;2022-08-18T17:50:47;27.80;78.70
39677;DHT22;27789;50.840;4.386;2022-08-18T17:53:25;27.60;78.70
39677;DHT22;27789;50.840;4.386;2022-08-18T17:55:58;27.60;79.60
39677;DHT22;27789;50.840;4.386;2022-08-18T17:58:27;27.50;79.80
39677;DHT22;27789;50.840;4.386;2022-08-18T18:00:53;27.50;80.30
39677;DHT22;27789;50.840;4.386;2022-08-18T18:03:19;27.40;80.80
39677;DHT22;27789;50.840;4.386;2022-08-18T18:05:46;27.40;81.50
39677;DHT22;27789;50.840;4.386;2022-08-18T18:08:14;27.30;81.80
39677;DHT22;27789;50.840;4.386;2022-08-18T18:10:42;27.30;81.90
39677;DHT22;27789;50.840;4.386;2022-08-18T18:15:46;27.30;82.10
39677;DHT22;27789;50.840;4.386;2022-08-18T18:20:56;27.10;82.60